Time;durP1;ratioP1;P1;durP2;ratioP2;P2;SDS_P1;SDS_P2;PMS_P1;PMS_P2;Temp;Humidity;BMP_temperature;BMP_pressure;BME280_temperature;BME280_humidity;BME280_pressure;Samples;Min_cycle;Max_cycle;Signal;HPM_P1;HPM_P2
2023/04/24 00:00:05;;;;;;;2.63;1.10;;;11.70;99.90;;;;;;6231525;28;20049;-81
2023/04/24 00:03:07;;;;;;;0.88;0.88;;;11.70;99.90;;;;;;6232334;28;20050;-81
2023/04/24 00:06:09;;;;;;;1.20;1.00;;;11.70;99.90;;;;;;6230919;28;20057;-81
2023/04/24 00:09:11;;;;;;;4.68;1.27;;;11.70;99.90;;;;;;6229621;28;20046;-81
2023/04/24 00:12:13;;;;;;;1.80;1.45;;;11.70;99.90;;;;;;6247369;28;20045;-81
2023/04/24 00:15:16;;;;;;;2.35;1.58;;;11.80;99.90;;;;;;6247597;28;20034;-82
2023/04/24 00:18:18;;;;;;;4.28;1.35;;;11.80;99.90;;;;;;6231024;28;20054;-82
2023/04/24 00:21:20;;;;;;;1.25;0.90;;;11.90;99.90;;;;;;6231099;28;20050;-82
2023/04/24 00:24:22;;;;;;;1.10;1.00;;;12.00;99.90;;;;;;6235707;28;20050;-81
2023/04/24 00:27:23;;;;;;;1.00;0.90;;;12.00;99.90;;;;;;6235530;28;20591;-81
2023/04/24 00:30:26;;;;;;;5.68;1.05;;;12.10;99.90;;;;;;6229738;28;20048;-81
2023/04/24 00:33:28;;;;;;;3.25;1.25;;;12.10;99.90;;;;;;6229671;28;20041;-81
2023/04/24 00:36:30;;;;;;;0.77;0.77;;;12.10;99.90;;;;;;6229643;28;20053;-81
2023/04/24 00:39:32;;;;;;;1.58;1.10;;;12.10;99.90;;;;;;6229084;28;20149;-81
2023/04/24 00:42:34;;;;;;;2.78;1.20;;;12.10;99.90;;;;;;6232156;28;20053;-82
2023/04/24 00:45:37;;;;;;;2.88;1.23;;;12.00;99.90;;;;;;6229440;28;20042;-81
2023/04/24 00:48:40;;;;;;;0.80;0.70;;;12.00;99.90;;;;;;6229646;28;20054;-81
2023/04/24 00:51:45;;;;;;;1.13;0.93;;;12.00;99.90;;;;;;6228715;28;20042;-81
2023/04/24 00:54:47;;;;;;;0.90;0.90;;;12.00;99.90;;;;;;6228719;28;20448;-81
2023/04/24 00:57:49;;;;;;;0.90;0.65;;;12.00;99.90;;;;;;6228870;28;20041;-81
2023/04/24 01:00:53;;;;;;;2.55;1.05;;;12.00;99.90;;;;;;6230000;28;20049;-82
2023/04/24 01:03:56;;;;;;;1.77;1.20;;;12.00;99.90;;;;;;6228098;28;20065;-81
2023/04/24 01:06:58;;;;;;;2.92;1.05;;;12.00;99.90;;;;;;6228751;28;20740;-80
2023/04/24 01:10:00;;;;;;;5.35;1.25;;;11.90;99.90;;;;;;6228294;28;20053;-80
2023/04/24 01:13:01;;;;;;;1.10;0.70;;;11.90;99.90;;;;;;6228421;28;20488;-80
2023/04/24 01:16:05;;;;;;;2.38;1.58;;;11.90;99.90;;;;;;6227946;28;20596;-80
2023/04/24 01:19:07;;;;;;;2.17;1.10;;;11.80;99.90;;;;;;6228014;28;20049;-80
2023/04/24 01:22:12;;;;;;;4.22;1.10;;;11.80;99.90;;;;;;6227828;28;20059;-80
2023/04/24 01:25:14;;;;;;;1.25;1.15;;;11.80;99.90;;;;;;6231503;28;20096;-80
2023/04/24 01:28:16;;;;;;;0.85;0.82;;;11.80;99.90;;;;;;6228481;28;20501;-81
2023/04/24 01:31:17;;;;;;;2.45;2.25;;;11.90;99.90;;;;;;6228023;28;20046;-81
2023/04/24 01:34:19;;;;;;;2.65;1.58;;;12.00;99.90;;;;;;6227682;28;20038;-80
2023/04/24 01:37:22;;;;;;;1.17;1.08;;;12.00;99.90;;;;;;6227384;28;20037;-81
2023/04/24 01:40:24;;;;;;;3.42;1.63;;;12.10;99.90;;;;;;6229054;28;20050;-81
2023/04/24 01:43:26;;;;;;;1.85;1.02;;;12.10;99.90;;;;;;6228597;28;20049;-81
2023/04/24 01:46:28;;;;;;;2.35;1.73;;;12.10;99.90;;;;;;6227871;28;20057;-81
2023/04/24 01:49:30;;;;;;;1.15;1.05;;;12.10;99.90;;;;;;6227922;28;20053;-81
2023/04/24 01:52:33;;;;;;;1.58;1.48;;;12.10;99.90;;;;;;6229195;28;20085;-81
2023/04/24 01:55:34;;;;;;;1.63;1.25;;;12.10;99.90;;;;;;6228239;28;20057;-81
2023/04/24 01:58:36;;;;;;;1.23;1.13;;;12.00;99.90;;;;;;6228080;28;20050;-81
2023/04/24 02:01:39;;;;;;;1.38;1.15;;;12.00;99.90;;;;;;6228130;28;20053;-80
2023/04/24 02:04:41;;;;;;;2.15;1.13;;;12.00;99.90;;;;;;6227688;28;20050;-81
2023/04/24 02:07:44;;;;;;;4.45;1.30;;;12.00;99.90;;;;;;6229080;28;20056;-80
2023/04/24 02:10:45;;;;;;;0.90;0.80;;;12.00;99.90;;;;;;6252899;28;20052;-81
2023/04/24 02:13:47;;;;;;;2.28;1.20;;;11.90;99.90;;;;;;6251425;28;20048;-81
2023/04/24 02:16:49;;;;;;;4.00;1.27;;;11.90;99.90;;;;;;6253342;28;20057;-80
2023/04/24 02:19:50;;;;;;;2.85;1.30;;;11.80;99.90;;;;;;6252473;28;20045;-81
2023/04/24 02:22:53;;;;;;;1.40;1.30;;;11.80;99.90;;;;;;6253093;28;20423;-81
2023/04/24 02:25:55;;;;;;;2.20;0.90;;;11.80;99.90;;;;;;6253427;28;20553;-81
2023/04/24 02:28:57;;;;;;;3.78;2.10;;;11.80;99.90;;;;;;6253177;28;20419;-81
2023/04/24 02:31:59;;;;;;;2.33;1.00;;;11.80;99.90;;;;;;6251995;28;20511;-81
2023/04/24 02:35:01;;;;;;;1.10;0.80;;;11.90;99.90;;;;;;6236682;28;20042;-81
2023/04/24 02:38:04;;;;;;;1.17;1.00;;;11.90;99.90;;;;;;6228032;28;20129;-81
2023/04/24 02:41:06;;;;;;;3.42;1.42;;;11.90;99.90;;;;;;6229839;28;20053;-80
2023/04/24 02:44:07;;;;;;;1.73;1.27;;;11.90;99.90;;;;;;6237860;28;20054;-80
2023/04/24 02:47:09;;;;;;;1.58;1.40;;;11.90;99.90;;;;;;6230069;28;20054;-81
2023/04/24 02:50:11;;;;;;;1.13;0.90;;;11.90;99.90;;;;;;6227269;28;20537;-81
2023/04/24 02:53:14;;;;;;;1.33;1.23;;;11.80;99.90;;;;;;6231720;28;20053;-83
2023/04/24 02:56:16;;;;;;;1.75;1.50;;;11.70;99.90;;;;;;6233422;28;20592;-81
2023/04/24 02:59:17;;;;;;;6.03;2.35;;;11.60;99.90;;;;;;6233510;28;20501;-81
2023/04/24 03:02:20;;;;;;;8.48;1.35;;;11.40;99.90;;;;;;6229289;28;20057;-79
2023/04/24 03:05:22;;;;;;;3.65;1.30;;;11.30;99.90;;;;;;6226952;28;20049;-79
2023/04/24 03:08:25;;;;;;;6.40;1.83;;;11.10;99.90;;;;;;6227091;28;20085;-79
2023/04/24 03:11:27;;;;;;;2.30;1.02;;;10.90;99.90;;;;;;6224995;28;20085;-79
2023/04/24 03:14:31;;;;;;;1.75;1.20;;;10.80;99.90;;;;;;6223824;28;20419;-78
2023/04/24 03:17:32;;;;;;;4.57;1.25;;;10.70;99.90;;;;;;6228766;28;20048;-79
2023/04/24 03:20:34;;;;;;;1.55;1.08;;;10.70;99.90;;;;;;6229390;28;20056;-79
2023/04/24 03:23:37;;;;;;;7.60;1.48;;;10.60;99.90;;;;;;6228438;28;20053;-79
2023/04/24 03:26:38;;;;;;;2.67;1.48;;;10.60;99.90;;;;;;6241077;28;20056;-78
2023/04/24 03:29:40;;;;;;;1.88;1.50;;;10.60;99.90;;;;;;6261921;28;20051;-79
2023/04/24 03:32:42;;;;;;;2.17;1.65;;;10.60;99.90;;;;;;6268137;28;20045;-79
2023/04/24 03:35:43;;;;;;;3.25;2.03;;;10.50;99.90;;;;;;6264698;28;20049;-81
2023/04/24 03:38:46;;;;;;;2.53;2.38;;;10.50;99.90;;;;;;6263591;28;20045;-80
2023/04/24 03:41:48;;;;;;;1.98;1.77;;;10.50;99.90;;;;;;6262561;28;20488;-80
2023/04/24 03:44:50;;;;;;;4.28;3.42;;;10.50;99.90;;;;;;6269528;28;20060;-78
2023/04/24 03:47:51;;;;;;;2.47;2.28;;;10.50;99.90;;;;;;6258587;28;20042;-82
2023/04/24 03:50:53;;;;;;;6.50;1.90;;;10.50;99.90;;;;;;6256809;28;20048;-82
2023/04/24 03:53:56;;;;;;;2.38;2.17;;;10.40;99.90;;;;;;6255485;28;20143;-83
2023/04/24 03:56:58;;;;;;;3.72;3.38;;;10.40;99.90;;;;;;6256033;28;20041;-83
2023/04/24 03:59:59;;;;;;;6.68;2.92;;;10.40;99.90;;;;;;6255471;28;20060;-81
2023/04/24 04:03:01;;;;;;;5.97;2.33;;;10.30;99.90;;;;;;6255741;28;20057;-82
2023/04/24 04:06:03;;;;;;;3.30;1.88;;;10.20;99.90;;;;;;6255396;28;20049;-82
2023/04/24 04:09:06;;;;;;;3.40;2.50;;;10.20;99.90;;;;;;6255694;28;20050;-80
2023/04/24 04:12:08;;;;;;;4.90;2.25;;;10.10;99.90;;;;;;6256480;28;20060;-82
2023/04/24 04:15:11;;;;;;;4.57;2.60;;;10.00;99.90;;;;;;6253071;28;20052;-82
2023/04/24 04:18:12;;;;;;;2.03;1.83;;;10.00;99.90;;;;;;6236774;28;20046;-81
2023/04/24 04:21:14;;;;;;;2.35;2.05;;;9.90;99.90;;;;;;6229765;28;20054;-82
2023/04/24 04:24:17;;;;;;;6.07;2.13;;;9.90;99.90;;;;;;6230537;28;20049;-83
2023/04/24 04:27:21;;;;;;;3.53;2.08;;;9.80;99.90;;;;;;6230429;28;20124;-81
2023/04/24 04:30:23;;;;;;;2.40;2.20;;;9.70;99.90;;;;;;6230244;28;20519;-82
2023/04/24 04:33:25;;;;;;;2.28;2.08;;;9.60;99.90;;;;;;6229522;28;20049;-83
2023/04/24 04:36:29;;;;;;;5.35;2.50;;;9.60;99.90;;;;;;6229971;28;20034;-82
2023/04/24 04:39:32;;;;;;;3.88;3.55;;;9.50;99.90;;;;;;6230558;28;20089;-82
2023/04/24 04:42:34;;;;;;;3.25;2.95;;;9.40;99.90;;;;;;6230471;28;20049;-82
2023/04/24 04:45:37;;;;;;;5.60;3.22;;;9.40;99.90;;;;;;6232620;28;20042;-82
2023/04/24 04:48:39;;;;;;;2.22;2.05;;;9.40;99.90;;;;;;6230064;28;20046;-82
2023/04/24 04:51:41;;;;;;;3.42;3.00;;;9.40;99.90;;;;;;6229598;28;20054;-82
2023/04/24 04:54:44;;;;;;;8.85;2.97;;;9.40;99.90;;;;;;6228935;28;20057;-82
2023/04/24 04:57:45;;;;;;;4.15;3.05;;;9.40;99.90;;;;;;6229361;28;20046;-83
2023/04/24 05:00:47;;;;;;;4.78;3.65;;;9.40;99.90;;;;;;6230661;28;20057;-82
2023/04/24 05:03:49;;;;;;;3.97;3.05;;;9.50;99.90;;;;;;6235298;28;20049;-82
2023/04/24 05:06:51;;;;;;;6.22;3.88;;;9.50;99.90;;;;;;6253888;28;20045;-82
2023/04/24 05:09:54;;;;;;;4.32;2.63;;;9.70;99.90;;;;;;6252962;28;20042;-83
2023/04/24 05:12:56;;;;;;;3.33;2.97;;;9.80;99.90;;;;;;6254339;28;20053;-82
2023/04/24 05:15:58;;;;;;;2.67;2.45;;;10.00;99.90;;;;;;6253209;28;20037;-81
2023/04/24 05:19:00;;;;;;;2.58;2.38;;;10.30;99.90;;;;;;6254228;28;20125;-80
2023/04/24 05:22:03;;;;;;;3.22;2.92;;;10.50;99.90;;;;;;6255291;28;20060;-81
2023/04/24 05:25:06;;;;;;;3.22;2.92;;;10.70;99.90;;;;;;6235615;28;20057;-80
2023/04/24 05:28:08;;;;;;;3.15;2.95;;;11.00;99.90;;;;;;6232281;28;20494;-80
2023/04/24 05:31:10;;;;;;;2.80;2.60;;;11.20;99.90;;;;;;6230074;28;20049;-80
2023/04/24 05:34:11;;;;;;;2.72;2.38;;;11.30;99.90;;;;;;6230043;28;20046;-80
2023/04/24 05:37:13;;;;;;;2.47;2.28;;;11.30;99.90;;;;;;6229256;28;20500;-81
2023/04/24 05:40:16;;;;;;;2.08;1.88;;;11.30;99.90;;;;;;6229794;28;20053;-81
2023/04/24 05:43:18;;;;;;;2.50;2.30;;;11.30;99.90;;;;;;6228853;28;20050;-81
2023/04/24 05:46:19;;;;;;;6.60;2.67;;;11.20;99.90;;;;;;6232162;28;20116;-81
2023/04/24 05:49:21;;;;;;;4.47;2.22;;;11.20;99.90;;;;;;6229136;28;20041;-82
2023/04/24 05:52:23;;;;;;;4.07;3.08;;;11.20;99.90;;;;;;6230187;28;20065;-80
2023/04/24 05:55:26;;;;;;;3.63;2.55;;;11.20;99.90;;;;;;6231122;28;20053;-84
2023/04/24 05:58:28;;;;;;;3.22;2.22;;;11.20;99.90;;;;;;6234435;28;20050;-83
2023/04/24 06:01:31;;;;;;;4.25;2.20;;;11.30;99.90;;;;;;6236528;28;20042;-82
2023/04/24 06:04:33;;;;;;;2.85;2.30;;;11.20;99.90;;;;;;6235461;28;20057;-82
2023/04/24 06:07:34;;;;;;;2.28;2.08;;;11.10;99.90;;;;;;6236451;28;20114;-82
2023/04/24 06:10:37;;;;;;;2.72;2.53;;;11.10;99.90;;;;;;6235865;28;20137;-82
2023/04/24 06:13:39;;;;;;;4.50;2.20;;;11.10;99.90;;;;;;6241392;28;20069;-85
2023/04/24 06:16:42;;;;;;;2.63;2.42;;;11.10;99.90;;;;;;6244017;28;20623;-83
2023/04/24 06:19:44;;;;;;;3.80;3.03;;;11.10;99.90;;;;;;6244170;28;20052;-81
2023/04/24 06:22:46;;;;;;;5.00;1.92;;;11.20;99.90;;;;;;6255182;28;20539;-81
2023/04/24 06:25:49;;;;;;;3.88;2.15;;;11.20;99.90;;;;;;6254169;28;20052;-81
2023/04/24 06:28:51;;;;;;;2.22;2.03;;;11.50;99.90;;;;;;6255786;28;20515;-81
2023/04/24 06:31:53;;;;;;;3.60;2.85;;;11.80;99.90;;;;;;6254714;28;20046;-81
2023/04/24 06:34:55;;;;;;;3.97;2.28;;;12.00;99.90;;;;;;6253142;28;20053;-81
2023/04/24 06:37:56;;;;;;;3.47;2.60;;;12.00;99.90;;;;;;6252436;28;20124;-81
2023/04/24 06:40:59;;;;;;;2.90;2.70;;;12.00;99.90;;;;;;6251831;28;20053;-82
2023/04/24 06:44:01;;;;;;;3.08;2.60;;;12.30;99.90;;;;;;6230771;28;20054;-82
2023/04/24 06:47:03;;;;;;;4.45;3.05;;;12.40;99.90;;;;;;6229901;28;20130;-82
2023/04/24 06:50:06;;;;;;;2.72;2.53;;;12.40;99.90;;;;;;6233563;28;20050;-82
2023/04/24 06:53:08;;;;;;;4.15;2.55;;;12.50;99.90;;;;;;6236606;28;20061;-82
2023/04/24 06:56:11;;;;;;;4.25;1.92;;;12.70;99.90;;;;;;6243389;28;20046;-82
2023/04/24 06:59:12;;;;;;;5.03;2.15;;;12.90;99.90;;;;;;6243245;28;20046;-82
2023/04/24 07:02:14;;;;;;;3.20;2.05;;;13.10;99.90;;;;;;6244157;28;20064;-82
2023/04/24 07:05:19;;;;;;;2.80;1.70;;;13.30;99.90;;;;;;6243658;28;20060;-83
2023/04/24 07:08:21;;;;;;;1.60;1.50;;;13.10;99.90;;;;;;6243958;28;20050;-81
2023/04/24 07:11:29;;;;;;;3.30;2.63;;;13.40;99.90;;;;;;6243894;28;20042;-82
2023/04/24 07:14:30;;;;;;;3.85;2.08;;;14.00;99.90;;;;;;6243887;28;20046;-82
2023/04/24 07:17:32;;;;;;;4.03;2.53;;;14.30;99.90;;;;;;6244072;28;20041;-82
2023/04/24 07:20:34;;;;;;;1.83;1.67;;;14.40;99.90;;;;;;6241885;28;20113;-80
2023/04/24 07:23:36;;;;;;;2.88;1.90;;;14.30;99.90;;;;;;6239347;28;20068;-81
2023/04/24 07:26:39;;;;;;;2.55;1.48;;;14.40;99.90;;;;;;6256845;28;20052;-81
2023/04/24 07:29:41;;;;;;;3.67;1.42;;;14.50;99.90;;;;;;6256996;28;20569;-81
2023/04/24 07:32:43;;;;;;;1.48;1.35;;;14.50;99.90;;;;;;6256167;28;20054;-82
2023/04/24 07:35:45;;;;;;;5.13;1.70;;;14.60;99.90;;;;;;6256433;28;20047;-82
2023/04/24 07:38:47;;;;;;;2.95;1.45;;;14.50;99.90;;;;;;6255825;28;20053;-82
2023/04/24 07:41:50;;;;;;;1.38;1.27;;;14.30;99.90;;;;;;6256204;28;20056;-81
2023/04/24 07:44:51;;;;;;;1.92;1.40;;;14.00;99.90;;;;;;6256078;28;20061;-81
2023/04/24 07:47:53;;;;;;;2.15;1.10;;;13.60;99.90;;;;;;6256743;28;20133;-81
2023/04/24 07:50:55;;;;;;;1.60;1.20;;;13.40;99.90;;;;;;6256503;28;20049;-81
2023/04/24 07:53:56;;;;;;;2.95;1.50;;;13.10;99.90;;;;;;6254955;28;20050;-81
2023/04/24 07:57:00;;;;;;;6.25;1.80;;;12.90;99.90;;;;;;6254335;28;20049;-81
2023/04/24 08:00:02;;;;;;;1.60;1.50;;;12.60;99.90;;;;;;6254368;28;20057;-81
2023/04/24 08:03:03;;;;;;;5.93;2.10;;;12.40;99.90;;;;;;6253789;28;20491;-81
2023/04/24 08:06:06;;;;;;;3.92;1.70;;;12.30;99.90;;;;;;6254508;28;20049;-81
2023/04/24 08:09:08;;;;;;;2.40;1.92;;;12.20;99.90;;;;;;6257761;28;20056;-80
2023/04/24 08:12:11;;;;;;;2.75;2.55;;;12.30;99.90;;;;;;6256662;28;20484;-81
2023/04/24 08:15:12;;;;;;;1.85;1.40;;;12.40;99.90;;;;;;6248188;28;20068;-81
2023/04/24 08:18:15;;;;;;;2.00;1.80;;;12.50;99.90;;;;;;6245153;28;20038;-81
2023/04/24 08:21:18;;;;;;;3.08;1.85;;;12.60;99.90;;;;;;6235080;28;20220;-81
2023/04/24 08:24:20;;;;;;;2.83;2.17;;;12.30;99.90;;;;;;6231431;28;20147;-81
2023/04/24 08:27:23;;;;;;;4.28;2.50;;;12.00;99.90;;;;;;6231089;28;20096;-81
2023/04/24 08:30:25;;;;;;;5.03;2.95;;;11.80;99.90;;;;;;6235663;28;20050;-82
2023/04/24 08:33:26;;;;;;;3.13;2.63;;;11.60;99.90;;;;;;6233783;28;20049;-81
2023/04/24 08:36:28;;;;;;;3.83;2.30;;;11.40;99.90;;;;;;6233876;28;20073;-82
2023/04/24 08:39:30;;;;;;;3.92;2.60;;;11.30;99.90;;;;;;6236376;28;20045;-82
2023/04/24 08:42:37;;;;;;;4.28;2.63;;;11.20;99.90;;;;;;6237755;28;20145;-82
2023/04/24 08:45:39;;;;;;;2.38;2.15;;;11.30;99.90;;;;;;6258220;28;20045;-82
2023/04/24 08:48:41;;;;;;;5.10;2.67;;;11.40;99.90;;;;;;6262277;28;20053;-82
2023/04/24 08:51:42;;;;;;;2.83;2.50;;;12.00;99.90;;;;;;6259403;28;20056;-81
2023/04/24 08:54:46;;;;;;;3.55;1.58;;;13.10;99.90;;;;;;6260162;28;20056;-82
2023/04/24 08:57:53;;;;;;;2.35;1.75;;;14.20;99.90;;;;;;6256363;28;20037;-82
2023/04/24 09:00:56;;;;;;;3.92;1.45;;;15.00;99.90;;;;;;6259219;28;20050;-83
2023/04/24 09:03:58;;;;;;;3.22;1.95;;;15.60;99.90;;;;;;6257014;28;20041;-83
2023/04/24 09:07:00;;;;;;;4.72;1.77;;;15.60;99.90;;;;;;6257000;28;20060;-83
2023/04/24 09:10:03;;;;;;;2.13;1.83;;;15.50;99.90;;;;;;6257629;28;20057;-81
2023/04/24 09:13:08;;;;;;;2.15;1.88;;;15.10;99.90;;;;;;6254993;28;20045;-83
2023/04/24 09:16:10;;;;;;;1.38;1.27;;;14.90;99.90;;;;;;6241598;28;20488;-82
2023/04/24 09:19:12;;;;;;;4.68;2.05;;;14.90;99.90;;;;;;6255651;28;20467;-82
2023/04/24 09:22:14;;;;;;;3.53;1.92;;;15.10;99.90;;;;;;6256115;28;20073;-83
2023/04/24 09:25:15;;;;;;;2.22;1.85;;;15.80;99.90;;;;;;6254633;28;20052;-83
2023/04/24 09:28:18;;;;;;;2.58;2.35;;;15.90;99.90;;;;;;6255419;28;20207;-81
2023/04/24 09:31:22;;;;;;;4.28;2.15;;;15.30;99.90;;;;;;6255088;28;20046;-82
2023/04/24 09:34:25;;;;;;;2.22;1.92;;;15.20;99.90;;;;;;6254624;28;20046;-82
2023/04/24 09:37:30;;;;;;;2.92;2.42;;;15.10;99.90;;;;;;6255610;28;20052;-82
2023/04/24 09:40:35;;;;;;;6.75;2.50;;;14.90;99.90;;;;;;6255381;28;20515;-82
2023/04/24 09:43:38;;;;;;;5.55;2.15;;;14.70;99.90;;;;;;6250682;28;20045;-82
2023/04/24 09:46:41;;;;;;;2.95;2.67;;;14.40;99.90;;;;;;6230897;28;20050;-81
2023/04/24 09:49:43;;;;;;;5.70;2.65;;;14.30;99.90;;;;;;6230127;28;20049;-81
2023/04/24 09:52:46;;;;;;;2.30;2.10;;;14.10;99.90;;;;;;6230348;28;20061;-82
2023/04/24 09:55:48;;;;;;;3.15;2.10;;;14.00;99.90;;;;;;6230521;28;20046;-81
2023/04/24 09:58:51;;;;;;;5.47;1.90;;;13.90;99.90;;;;;;6230508;28;20054;-81
2023/04/24 10:01:54;;;;;;;1.85;1.65;;;13.90;99.90;;;;;;6231821;28;20057;-81
2023/04/24 10:04:56;;;;;;;4.90;2.00;;;13.80;99.90;;;;;;6234403;28;20052;-82
2023/04/24 10:08:01;;;;;;;1.48;1.38;;;14.10;99.90;;;;;;6232626;28;20412;-81
2023/04/24 10:11:03;;;;;;;3.10;1.58;;;14.10;99.90;;;;;;6232524;28;20241;-82
2023/04/24 10:14:06;;;;;;;2.25;1.80;;;14.00;99.90;;;;;;6238221;28;20057;-81
2023/04/24 10:17:08;;;;;;;3.20;2.05;;;13.90;99.90;;;;;;6230595;28;20046;-81
2023/04/24 10:20:11;;;;;;;2.47;2.05;;;13.90;99.90;;;;;;6229821;28;20060;-81
2023/04/24 10:23:13;;;;;;;2.28;2.08;;;13.90;99.90;;;;;;6229992;28;20056;-81
2023/04/24 10:26:17;;;;;;;4.50;1.90;;;13.80;99.90;;;;;;6239297;28;20057;-81
2023/04/24 10:29:22;;;;;;;3.88;2.10;;;13.60;99.90;;;;;;6254624;28;20042;-81
2023/04/24 10:32:23;;;;;;;2.53;2.03;;;13.60;99.90;;;;;;6264425;28;20075;-81
2023/04/24 10:35:26;;;;;;;5.20;2.08;;;13.60;99.90;;;;;;6263646;28;20053;-81
2023/04/24 10:38:30;;;;;;;2.78;2.35;;;13.60;99.90;;;;;;6256808;28;20073;-81
2023/04/24 10:41:32;;;;;;;4.40;3.08;;;13.50;99.90;;;;;;6256168;28;20049;-82
2023/04/24 10:44:38;;;;;;;3.80;2.67;;;13.40;99.90;;;;;;6244463;28;20050;-82
2023/04/24 10:47:43;;;;;;;4.10;2.88;;;13.20;99.90;;;;;;6230768;28;20046;-82
2023/04/24 10:50:52;;;;;;;3.63;2.60;;;13.10;99.90;;;;;;6233048;28;20046;-82
2023/04/24 10:54:10;;;;;;;4.68;2.00;;;13.00;99.90;;;;;;6235397;28;20058;-82
2023/04/24 10:57:30;;;;;;;2.42;2.20;;;12.70;99.90;;;;;;6231084;28;20065;-81
2023/04/24 11:00:33;;;;;;;4.35;2.35;;;12.50;99.90;;;;;;6234885;28;20058;-82
2023/04/24 11:03:36;;;;;;;2.70;2.45;;;12.50;99.90;;;;;;6267358;28;20061;-82
2023/04/24 11:06:38;;;;;;;3.83;2.70;;;12.40;99.90;;;;;;6274374;28;20053;-82
2023/04/24 11:09:43;;;;;;;3.67;2.80;;;12.40;99.90;;;;;;6278243;28;20124;-81
2023/04/24 11:12:45;;;;;;;4.90;2.40;;;12.50;99.90;;;;;;6277205;28;20107;-82
2023/04/24 11:16:14;;;;;;;5.97;4.13;;;12.50;99.90;;;;;;6231831;28;20512;-82
2023/04/24 11:19:23;;;;;;;5.35;3.65;;;12.70;99.90;;;;;;6225528;28;20053;-81
2023/04/24 11:22:25;;;;;;;9.43;8.63;;;12.80;99.90;;;;;;6231079;28;20053;-80
2023/04/24 11:25:31;;;;;;;12.80;11.50;;;12.90;99.90;;;;;;6235004;28;20106;-81
2023/04/24 11:28:33;;;;;;;9.23;7.40;;;13.00;99.90;;;;;;6234181;28;20415;-81
2023/04/24 11:31:41;;;;;;;21.40;19.33;;;13.00;99.90;;;;;;6250068;28;20069;-82
2023/04/24 11:34:46;;;;;;;;;;;13.00;99.90;;;;;;6278638;28;20041;-81
2023/04/24 11:37:49;;;;;;;9.02;8.15;;;12.80;99.90;;;;;;6251847;28;19933;-81
2023/04/24 11:44:22;;;;;;;8.43;7.55;;;12.50;99.90;;;;;;6235731;28;20056;-81
2023/04/24 11:47:33;;;;;;;7.97;6.60;;;12.30;99.90;;;;;;6232696;28;20075;-81
2023/04/24 11:50:35;;;;;;;6.55;5.88;;;12.10;99.90;;;;;;6235809;28;20060;-79
2023/04/24 11:53:37;;;;;;;7.57;5.38;;;11.90;99.90;;;;;;6231133;28;20069;-81
2023/04/24 11:56:39;;;;;;;7.43;5.18;;;12.00;99.90;;;;;;6236738;28;20420;-81
2023/04/24 11:59:41;;;;;;;4.18;3.80;;;12.10;99.90;;;;;;6241341;28;20056;-82
2023/04/24 12:02:44;;;;;;;4.40;3.15;;;12.40;99.90;;;;;;6238159;28;20041;-82
2023/04/24 12:05:46;;;;;;;3.70;3.40;;;12.50;99.90;;;;;;6239037;28;20061;-80
2023/04/24 12:08:48;;;;;;;7.38;4.35;;;12.80;99.90;;;;;;6236868;28;20049;-82
2023/04/24 12:11:54;;;;;;;4.55;3.38;;;13.00;99.90;;;;;;6238860;28;20064;-81
2023/04/24 12:14:57;;;;;;;4.15;3.55;;;13.40;99.90;;;;;;6236039;28;20050;-80
2023/04/24 12:18:00;;;;;;;7.20;3.40;;;13.70;99.90;;;;;;6237506;28;20068;-81
2023/04/24 12:21:19;;;;;;;4.50;4.00;;;13.70;99.90;;;;;;6237000;28;20090;-80
2023/04/24 12:24:21;;;;;;;4.35;3.95;;;13.70;99.90;;;;;;6237526;28;20049;-81
2023/04/24 12:27:23;;;;;;;4.68;4.28;;;13.70;99.90;;;;;;6236794;28;20042;-81
2023/04/24 12:30:29;;;;;;;7.65;7.13;;;13.80;99.90;;;;;;6234885;28;20508;-81
2023/04/24 12:33:35;;;;;;;3.95;3.65;;;14.10;99.90;;;;;;6239287;28;20037;-81
2023/04/24 12:36:37;;;;;;;5.35;3.50;;;14.40;99.90;;;;;;6242257;28;20062;-81
2023/04/24 12:39:38;;;;;;;3.95;3.53;;;14.70;99.90;;;;;;6242641;28;20048;-81
2023/04/24 12:42:44;;;;;;;5.65;3.70;;;14.80;99.90;;;;;;6242418;28;20045;-81
2023/04/24 12:45:46;;;;;;;3.95;3.60;;;15.10;99.90;;;;;;6245154;28;20049;-81
2023/04/24 12:48:49;;;;;;;3.35;2.95;;;15.30;99.90;;;;;;6245778;28;20057;-80
2023/04/24 12:51:51;;;;;;;4.72;3.35;;;15.50;99.90;;;;;;6244353;28;20056;-82
2023/04/24 12:54:54;;;;;;;3.97;3.38;;;15.80;99.90;;;;;;6243855;28;20049;-81
2023/04/24 12:57:56;;;;;;;2.83;2.63;;;16.10;99.90;;;;;;6237920;28;20041;-81
2023/04/24 13:00:58;;;;;;;6.05;2.85;;;16.10;99.90;;;;;;6236846;28;20045;-82
2023/04/24 13:04:01;;;;;;;6.13;3.72;;;15.90;99.90;;;;;;6237842;28;20053;-82
2023/04/24 13:07:03;;;;;;;2.88;2.63;;;15.70;99.90;;;;;;6238202;28;20060;-81
2023/04/24 13:10:05;;;;;;;4.38;2.97;;;15.50;99.90;;;;;;6238624;28;20049;-81
2023/04/24 13:13:07;;;;;;;4.97;2.67;;;15.40;99.90;;;;;;6239903;28;20061;-82
2023/04/24 13:16:08;;;;;;;2.88;2.55;;;15.30;99.90;;;;;;6236335;28;20046;-80
2023/04/24 13:19:11;;;;;;;2.78;2.58;;;15.30;99.90;;;;;;6237491;28;20041;-80
2023/04/24 13:22:13;;;;;;;3.05;2.75;;;15.70;99.90;;;;;;6248397;28;20057;-81
2023/04/24 13:25:16;;;;;;;7.05;3.58;;;16.10;99.90;;;;;;6236705;28;20049;-81
2023/04/24 13:28:18;;;;;;;5.57;3.40;;;16.50;99.90;;;;;;6239143;28;20049;-83
2023/04/24 13:31:20;;;;;;;6.85;3.03;;;16.70;99.90;;;;;;6233841;28;20038;-81
2023/04/24 13:34:23;;;;;;;4.40;3.08;;;16.80;99.90;;;;;;6237636;28;20050;-82
2023/04/24 13:37:25;;;;;;;4.50;3.65;;;16.80;99.90;;;;;;6238177;28;20065;-82
2023/04/24 13:40:27;;;;;;;4.63;3.45;;;16.80;99.90;;;;;;6236440;28;20057;-82
2023/04/24 13:43:29;;;;;;;4.57;3.05;;;16.80;99.90;;;;;;6235765;28;20048;-81
2023/04/24 13:46:31;;;;;;;4.25;3.92;;;16.50;99.90;;;;;;6238025;28;21203;-81
2023/04/24 13:49:35;;;;;;;5.05;2.90;;;16.10;99.90;;;;;;6241754;28;20045;-78
2023/04/24 13:52:36;;;;;;;2.80;2.40;;;15.90;99.90;;;;;;6239122;28;20747;-81
2023/04/24 13:55:39;;;;;;;3.85;2.67;;;15.80;99.90;;;;;;6238890;28;20405;-82
2023/04/24 13:58:40;;;;;;;5.20;2.10;;;15.70;99.80;;;;;;6241175;28;20041;-81
2023/04/24 14:01:42;;;;;;;6.20;2.30;;;15.40;99.90;;;;;;6237519;28;20082;-79
2023/04/24 14:04:45;;;;;;;2.50;2.30;;;15.30;99.90;;;;;;6235503;28;20046;-82
2023/04/24 14:07:47;;;;;;;2.85;2.45;;;15.10;99.90;;;;;;6236480;28;20045;-79
2023/04/24 14:10:49;;;;;;;4.78;2.90;;;14.80;99.60;;;;;;6236205;28;20037;-80
2023/04/24 14:13:51;;;;;;;3.28;2.50;;;14.60;99.90;;;;;;6231896;28;20053;-80
2023/04/24 14:16:52;;;;;;;5.57;3.00;;;14.30;99.90;;;;;;6232934;28;20068;-82
2023/04/24 14:19:56;;;;;;;3.40;3.10;;;14.20;99.90;;;;;;6238403;28;20400;-82
2023/04/24 14:22:58;;;;;;;6.43;2.72;;;14.20;99.90;;;;;;6233359;28;20046;-82
2023/04/24 14:26:00;;;;;;;2.35;2.15;;;14.30;99.90;;;;;;6232357;28;20046;-79
2023/04/24 14:29:02;;;;;;;3.00;2.00;;;14.70;99.90;;;;;;6232231;28;20052;-82
2023/04/24 14:32:04;;;;;;;3.08;2.42;;;15.20;99.90;;;;;;6236745;28;20045;-82
2023/04/24 14:35:08;;;;;;;2.70;1.90;;;15.70;99.50;;;;;;6210291;28;20056;-81
2023/04/24 14:38:10;;;;;;;2.40;1.83;;;16.20;98.30;;;;;;6235098;28;20125;-82
2023/04/24 14:41:12;;;;;;;3.17;1.80;;;16.30;96.70;;;;;;6233871;28;20041;-80
2023/04/24 14:44:13;;;;;;;2.08;1.48;;;16.20;95.30;;;;;;6231951;28;20049;-82
2023/04/24 14:47:17;;;;;;;3.72;1.80;;;15.90;95.40;;;;;;6208225;28;20102;-78
2023/04/24 14:50:20;;;;;;;2.03;1.65;;;15.90;95.50;;;;;;6236356;28;20046;-82
2023/04/24 14:53:22;;;;;;;3.00;2.47;;;15.80;95.20;;;;;;6245124;28;20053;-82
2023/04/24 14:56:24;;;;;;;2.22;1.80;;;15.80;95.30;;;;;;6248631;28;20148;-81
2023/04/24 14:59:26;;;;;;;3.55;1.90;;;15.60;95.10;;;;;;6241320;28;20044;-82
2023/04/24 15:02:28;;;;;;;2.08;1.63;;;15.50;95.30;;;;;;6238078;28;20045;-79
2023/04/24 15:05:31;;;;;;;3.03;2.03;;;15.20;95.00;;;;;;6236685;28;20045;-79
2023/04/24 15:08:32;;;;;;;1.75;1.48;;;15.00;95.10;;;;;;6235718;28;20057;-82
2023/04/24 15:11:34;;;;;;;1.50;1.40;;;14.90;95.40;;;;;;6235493;28;20057;-81
2023/04/24 15:14:36;;;;;;;2.13;1.92;;;14.70;95.40;;;;;;6243865;28;20045;-82
2023/04/24 15:17:38;;;;;;;2.08;1.95;;;14.70;95.70;;;;;;6248714;28;20056;-80
2023/04/24 15:20:41;;;;;;;1.90;1.80;;;14.70;95.70;;;;;;6245895;28;20049;-81
2023/04/24 15:23:42;;;;;;;2.47;1.98;;;14.70;95.40;;;;;;6219664;28;20176;-79
2023/04/24 15:26:44;;;;;;;5.82;2.47;;;14.80;95.70;;;;;;6245388;28;20053;-80
2023/04/24 15:29:46;;;;;;;3.58;1.92;;;15.20;95.50;;;;;;6248721;28;20081;-80
2023/04/24 15:32:48;;;;;;;3.95;1.55;;;15.50;94.80;;;;;;6246641;28;20048;-81
2023/04/24 15:35:51;;;;;;;2.38;2.00;;;15.40;94.40;;;;;;6243206;28;20066;-82
2023/04/24 15:38:52;;;;;;;5.40;2.83;;;15.30;94.30;;;;;;6246961;28;20045;-82
2023/04/24 15:41:55;;;;;;;3.75;1.98;;;15.00;93.90;;;;;;6238488;28;20053;-80
2023/04/24 15:44:56;;;;;;;4.68;1.73;;;14.70;93.90;;;;;;6236099;28;20279;-82
2023/04/24 15:47:58;;;;;;;2.35;2.15;;;14.50;94.10;;;;;;6243770;28;20044;-82
2023/04/24 15:51:01;;;;;;;2.55;2.33;;;14.30;93.90;;;;;;6238147;28;20050;-80
2023/04/24 15:54:03;;;;;;;2.67;2.28;;;14.10;94.20;;;;;;6242770;28;20062;-82